Weather observations for the past three days for
Orr Regional Airport
Imperial (Metric)
Date Time (cdt) Wind (mph) Vis. (mi.) Weather Sky Cond. Temperature (ºF) Relative Humidity Wind Chill (°F) Heat Index (°F) Pressure Precipitation (in)
Air Dwpt 6 hour altimeter (in) sea level (mb) 1 hr 3 hr 6 hr
Max. Min.
05 20:35 NW 10 G 18 10.00 Overcast OVC033 33.6 21.6 61% 26 29.86 0.0
05 20:15 NW 8 G 22 10.00 Overcast OVC034 34 21.4 60% 28 29.85 0.0
05 19:55 NW 12 G 20 9.00 Overcast OVC035 34.2 21 59% 26 29.84 0.0
05 19:35 NW 12 G 18 10.00 Overcast OVC035 34.3 21.2 59% 27 29.84 0.0
05 19:15 NW 12 9.00 Overcast OVC036 34.5 21 58% 27 29.84 0.0
05 18:55 NW 9 G 17 10.00 Overcast OVC036 35.1 21.2 36.9 33.6 57% 29 29.83 0.0
05 18:35 NW 12 G 21 10.00 Overcast OVC036 35.1 21.2 57% 28 29.83 0.0
05 18:15 NW 14 G 18 9.00 Overcast OVC035 35.2 21.4 57% 27 29.83 0.0
05 17:55 NW 9 9.00 Overcast OVC033 35.2 21.4 57% 29 29.82 0.0
05 17:35 W 10 9.00 Overcast OVC033 35.2 22.1 59% 28 29.82 0.0
05 17:15 W 13 G 20 10.00 Overcast OVC033 35.1 21.7 58% 27 29.82 0.0
05 16:55 W 12 G 20 10.00 Overcast OVC035 35.6 21.4 56% 28 29.82 0.0
05 16:35 NW 12 G 22 10.00 Overcast OVC034 36 21.4 55% 29 29.82 0.0
05 16:15 NW 15 G 21 10.00 Overcast OVC035 35.6 21.4 56% 27 29.81 0.0
05 15:55 NW 15 G 23 10.00 Overcast OVC037 36 20.5 53% 27 29.81 0.0
05 15:35 NW 13 G 23 9.00 Overcast OVC037 36.5 21.4 54% 29 29.81 0.0
05 15:15 NW 15 G 21 9.00 Overcast OVC036 36.1 20.8 54% 28 29.81 0.0
05 14:55 NW 8 G 21 9.00 Overcast OVC036 36.7 21.4 54% 31 29.8 0.0
05 14:35 NW 14 G 21 9.00 Overcast OVC035 35.8 20.7 54% 28 29.8 0.0
05 14:15 W 17 9.00 Overcast OVC037 35.8 21 55% 26 29.8 0.0
05 13:55 NW 15 G 20 9.00 Overcast OVC033 35.1 21.2 57% 26 29.79 0.0
05 13:35 NW 13 G 21 9.00 Overcast OVC032 34.3 21 58% 26 29.79 0.0
05 13:15 W 10 10.00 Overcast OVC031 33.8 20.8 59% 26 29.79 0.0
05 12:55 NW 9 9.00 Overcast OVC033 34 20.5 34.5 27.9 58% 27 29.78 0.0
05 12:35 NW 16 G 22 9.00 Overcast OVC034 33.6 20.3 58% 24 29.78 0.0
05 12:15 NW 12 9.00 Overcast OVC033 34 19.8 56% 26 29.77 0.0
05 11:55 NW 12 9.00 Overcast OVC034 33.3 19.8 58% 25 29.77 0.0
05 11:35 W 10 9.00 Overcast OVC033 32.5 19.8 59% 25 29.77 0.0
05 11:15 NW 10 G 17 9.00 Unknown Precip OVC033 32.7 19.2 58% 25 29.76 0.0
05 10:55 NW 12 9.00 Overcast BKN034 OVC044 32.7 18.7 56% 25 29.75 0.0
05 10:35 NW 13 10.00 Overcast OVC031 31.6 19.4 61% 23 29.75 0.0
05 10:15 NW 15 G 18 10.00 Overcast OVC031 30.9 19.4 62% 21 29.75 0.0
05 09:55 NW 12 G 18 9.00 Mostly Cloudy SCT024 BKN034 30.7 20.1 65% 22 29.74 0.0
05 09:35 NW 13 G 21 10.00 Overcast OVC022 28.9 19.6 68% 19 29.74 0.0
05 09:15 NW 12 9.00 Overcast OVC023 28.4 19.9 71% 19 29.73 0.0
05 08:55 NW 15 G 21 7.00 Overcast OVC022 29.1 20.5 70% 19 29.72 0.0
05 08:35 NW 16 G 25 6.00 Light Snow BKN022 OVC027 28.6 20.7 72% 18 29.71 0.0
05 08:15 NW 10 8.00 Overcast BKN019 OVC028 28.6 22.1 77% 20 29.71 0.0
05 07:55 W 13 7.00 Light Snow BKN022 OVC028 28.2 21.4 76% 19 29.71 0.0
05 07:35 W 8 8.00 Light Snow BKN026 OVC033 28.4 21.6 76% 21 29.7 0.0
05 07:15 NW 15 G 21 8.00 Light Snow SCT024 OVC033 28 20.7 74% 17 29.7 0.0
05 06:55 NW 14 G 20 5.00 Light Snow SCT024 BKN032 OVC043 28 20.1 31.6 28 72% 18 29.7 0.0
05 06:35 NW 14 G 23 6.00 Light Snow FEW026 SCT032 OVC044 28.2 19.9 71% 18 29.69 0.0
05 06:15 W 12 G 20 7.00 Light Snow SCT027 BKN039 OVC048 28.4 19.6 70% 19 29.68 0.0
05 05:55 NW 14 G 20 9.00 Overcast BKN027 BKN033 OVC065 28.6 19.8 70% 18 29.68 0.0
05 05:35 NW 12 G 21 10.00 Overcast BKN026 BKN032 OVC065 28.6 19 67% 19 29.68 0.0
05 05:15 NW 16 G 21 10.00 Overcast OVC025 28.8 19.4 68% 18 29.67 0.0
05 04:55 NW 17 G 26 10.00 Overcast OVC024 29.1 20.5 70% 18 29.67 0.0
05 04:35 NW 14 G 20 10.00 Overcast OVC024 29.3 21 71% 19 29.67 0.0
05 04:15 NW 13 G 22 10.00 Overcast OVC024 29.1 21 72% 20 29.67 0.0
05 03:55 NW 16 G 24 10.00 Overcast OVC025 29.3 20.7 70% 19 29.66 0.0
05 03:35 NW 16 G 23 10.00 Overcast OVC025 29.3 20.7 70% 19 29.65 0.0
05 03:15 NW 13 G 22 10.00 Overcast OVC024 29.3 20.5 70% 20 29.65 0.0
05 02:55 NW 14 G 21 10.00 Overcast OVC023 29.7 21.7 72% 20 29.65 0.0
05 02:35 NW 16 G 22 10.00 Overcast OVC023 29.8 22.1 73% 19 29.65 0.0
05 02:15 NW 15 G 23 10.00 Overcast OVC023 30.2 22.8 74% 20 29.65 0.0
05 01:55 NW 14 G 22 10.00 Overcast BKN025 OVC070 30.6 22.6 72% 21 29.65 0.0
05 01:35 W 9 9.00 Overcast FEW019 SCT027 BKN034 OVC065 30.4 25.7 83% 23 29.64 0.0
05 01:15 NW 16 G 23 6.00 Unknown Precip OVC055 30.6 25.5 82% 20 29.65 0.0
05 00:55 NW 13 G 24 9.00 Unknown Precip BKN027 OVC049 32.5 24.3 40.6 32.5 72% 24 29.64 0.0
05 00:35 NW 13 G 22 10.00 Overcast OVC026 33.3 24.8 71% 25 29.63 0.0
05 00:15 NW 15 G 23 10.00 Overcast OVC026 33.8 26.1 73% 25 29.63 0.0
04 23:55 NW 15 G 20 10.00 Mostly Cloudy FEW028 BKN036 BKN150 34 26.8 75% 25 29.63 0.0
04 23:35 NW 13 G 20 10.00 Partly Cloudy FEW040 SCT150 34 27 76% 26 29.63 0.0
04 23:15 W 13 10.00 Partly Cloudy SCT160 34.2 27 75% 26 29.62 0.0
04 22:55 NW 14 G 20 10.00 Fair CLR 35.1 26.8 72% 27 29.62 0.0
04 22:35 W 14 G 21 10.00 A Few Clouds FEW047 35.6 26.2 69% 27 29.61 0.0
04 22:15 NW 9 G 22 10.00 Mostly Cloudy FEW038 BKN047 36.3 25.7 65% 30 29.61 0.0
04 21:55 NW 16 G 24 10.00 Overcast OVC046 37.2 26.4 65% 29 29.61 0.0
04 21:35 NW 16 G 25 10.00 Mostly Cloudy BKN045 37.8 26.1 63% 29 29.6 0.0
04 21:15 NW 10 G 18 10.00 Overcast OVC046 38.8 27 62% 33 29.59 0.0
04 20:55 NW 10 G 18 10.00 Overcast FEW034 OVC045 39.2 27.5 63% 33 29.58 0.0
04 20:35 NW 10 10.00 Overcast FEW026 BKN034 OVC044 39.2 30.2 70% 33 29.57 0.0
04 20:15 NW 12 G 20 10.00 Overcast BKN027 BKN033 OVC045 39 32 76% 32 29.56 0.0
04 19:55 W 15 G 21 9.00 Overcast SCT032 OVC047 39.4 31.8 74% 32 29.55 0.0
04 19:35 W 16 G 21 8.00 Light Rain SCT031 BKN049 BKN055 39.7 31.6 73% 32 29.55 0.0
04 19:15 W 16 G 23 10.00 Mostly Cloudy BKN050 40.5 31.5 70% 33 29.54 0.0
04 18:55 W 16 G 23 9.00 Overcast BKN050 OVC085 40.3 32 45 36.3 72% 33 29.54 0.0 0.02
04 18:35 W 13 10.00 Overcast BKN050 OVC085 39.4 31.3 73% 32 29.53 0.0
04 18:15 W 22 G 29 10.00 Mostly Cloudy and Breezy BKN085 39.4 32.4 76% 30 29.53 0.0
04 17:55 W 14 9.00 Mostly Cloudy FEW047 BKN080 39.2 34.7 84% 32 29.52 0.0 0.02
04 17:35 NW 16 G 24 9.00 Overcast FEW005 SCT041 SCT049 BKN060 OVC080 39.4 34.5 83% 31 29.52 0.0 0.02
04 17:15 NW 17 G 28 2.50 Light Rain FEW002 SCT048 BKN060 OVC080 38.3 33.3 82% 30 29.52 0.0 0.01
04 16:55 NW 14 G 21 3.00 Overcast with Haze SCT034 BKN043 OVC060 39.7 33.1 77% 33 29.5 0.0
04 16:35 NW 21 G 36 5.00 Light Rain and Breezy BKN032 OVC040 41.2 31.8 69% 33 29.5 0.0
04 16:15 W 20 G 32 9.00 Overcast SCT033 BKN040 OVC060 43.2 31.5 63% 35 29.49 0.0
04 15:55 W 16 G 29 6.00 Light Rain SCT032 SCT040 BKN046 OVC055 41 33.1 73% 33 29.48 0.0
04 15:35 W 18 G 26 10.00 Overcast FEW033 SCT044 OVC060 44.2 32.9 65% 37 29.47 0.0
04 15:15 NW 17 G 29 6.00 Light Rain SCT032 BKN044 OVC055 41.4 33.1 72% 34 29.47 0.0
04 14:55 NW 17 G 32 8.00 Mostly Cloudy FEW032 BKN041 BKN055 42.8 32.4 67% 35 29.46 0.0
04 14:35 W 22 G 28 9.00 Mostly Cloudy and Breezy SCT034 SCT042 BKN055 44.2 34 67% 36 29.45 0.0
04 14:15 NW 22 G 31 9.00 Mostly Cloudy and Breezy SCT034 BKN049 BKN055 44.8 33.4 65% 37 29.44 0.0
04 13:55 NW 16 G 35 2.50 Light Rain Fog/Mist FEW009 SCT031 BKN044 OVC050 40.8 37.2 87% 33 29.44 0.0
04 13:35 NW 24 G 33 9.00 Mostly Cloudy and Breezy SCT032 BKN042 BKN049 44.1 32.2 63% 36 29.42 0.0
04 13:15 NW 24 G 30 7.00 Mostly Cloudy and Breezy FEW023 SCT031 BKN041 BKN049 43.3 33.4 68% 35 29.42 0.0
04 12:55 W 15 G 35 0.75 Light Rain Fog/Mist FEW007 BKN027 BKN055 39.9 37.8 44.1 38.3 92% 32 29.41 0.0 0.01 0.03
04 12:35 NW 16 G 28 8.00 Overcast FEW014 SCT019 BKN027 BKN044 BKN055 OVC065 42.3 35.6 77% 35 29.4 0.0
04 12:15 W 22 G 30 2.50 Light Rain and Breezy FEW021 BKN026 BKN032 BKN045 OVC065 40.5 36.3 85% 31 29.4 0.0
04 11:55 NW 22 G 31 5.00 Overcast with Haze and Breezy FEW011 BKN019 BKN028 OVC060 41 35.8 82% 32 29.39 0.0
04 11:35 NW 18 G 29 1.25 Light Rain Fog/Mist SCT011 BKN017 OVC026 39.7 37.4 91% 31 29.39 0.0
04 11:15 NW 15 G 25 7.00 Overcast BKN016 BKN024 BKN029 OVC041 42.4 37.9 84% 36 29.37 0.0
04 10:55 NW 20 G 30 3.00 Light Rain Fog/Mist SCT015 BKN021 BKN027 OVC036 39.7 36.5 88% 31 29.36 0.0 0.02
04 10:35 NW 21 G 29 8.00 Overcast and Breezy FEW017 SCT022 BKN029 OVC037 41.5 37.4 85% 33 29.36 0.0 0.02
04 10:15 NW 18 G 32 3.00 Light Rain Fog/Mist SCT009 BKN014 BKN029 BKN035 OVC055 40.1 37.9 92% 32 29.35 0.0 0.02
04 09:55 NW 14 G 29 5.00 Light Rain Fog/Mist BKN015 OVC022 40.8 37.8 89% 34 29.34 0.0
04 09:35 W 16 G 22 8.00 Overcast BKN017 BKN024 OVC048 41.5 37 84% 34 29.33 0.0
04 09:15 NW 23 G 32 4.00 Light Rain Fog/Mist and Breezy BKN012 OVC022 40.1 37 89% 31 29.33 0.0
04 08:55 NW 18 G 31 9.00 Overcast OVC010 40.8 38.7 92% 33 29.31 0.0
04 08:35 NW 18 G 28 10.00 Overcast OVC013 42.1 39 89% 34 29.29 0.0
04 08:15 W 18 G 24 10.00 Overcast BKN016 OVC022 43.5 39.9 87% 36 29.28 0.0
04 07:55 W 15 G 23 9.00 Overcast BKN015 OVC022 43.7 41.2 91% 37 29.27 0.0
04 07:35 W 12 G 28 9.00 Overcast BKN013 OVC022 43.9 41.7 92% 38 29.26 0.0
04 07:15 W 15 G 22 10.00 Overcast OVC013 44.1 42.1 93% 38 29.26 0.0
04 06:55 W 13 G 23 10.00 Overcast BKN014 OVC020 44.1 42.4 59.4 44.1 94% 38 29.26 0.0 0.09
04 06:35 W 14 G 21 6.00 Fog/Mist OVC017 44.2 42.3 93% 38 29.25 0.0
04 06:15 W 13 G 21 6.00 Fog/Mist SCT014 BKN019 BKN046 OVC140 44.2 42.4 93% 39 29.25 0.0
04 05:55 W 13 G 21 7.00 Overcast FEW075 SCT095 OVC130 44.2 42.6 94% 39 29.24 0.0 0.01
04 05:35 W 9 7.00 Mostly Cloudy FEW060 SCT080 BKN095 44.2 42.6 94% 40 29.23 0.0 0.01
04 05:15 W 10 8.00 Overcast FEW031 SCT045 BKN060 OVC075 44.6 42.8 93% 40 29.23 0.0 0.01
04 04:55 SW 13 G 18 6.00 Light Rain Fog/Mist FEW004 SCT032 OVC045 45.1 43.5 94% 40 29.24 0.0 0.08
04 04:35 W 12 G 21 4.00 Light Rain Fog/Mist FEW004 SCT009 BKN014 OVC046 45.3 44.1 95% 40 29.25 0.0 0.06
04 04:15 NW 12 G 25 1.75 Light Rain Fog/Mist FEW005 SCT012 BKN017 BKN034 BKN044 OVC055 45.3 44.6 97% 40 29.27 0.0 0.03
04 03:55 NW 16 G 28 3.00 Overcast with Haze SCT019 BKN024 BKN033 OVC041 47.1 42.6 84% 41 29.27 0.0
04 03:35 NW 30 G 38 6.00 Light Rain and Windy FEW020 SCT027 SCT035 BKN065 OVC080 52.7 44.2 73% 29.26 0.0
04 03:15 W 15 G 26 9.00 Overcast OVC080 58.5 31.3 36% 29.21 0.0
04 02:55 SW 10 10.00 Mostly Cloudy BKN090 BKN160 57.2 30.9 37% 29.19 0.0
04 02:35 SW 9 9.00 Mostly Cloudy BKN090 57.6 30.7 36% 29.19 0.0
04 02:15 S 10 9.00 A Few Clouds FEW080 57.9 30.6 35% 29.2 0.0
04 01:55 SW 8 9.00 Partly Cloudy FEW090 SCT110 58.3 31.3 36% 29.22 0.0
04 01:35 SW 10 9.00 Partly Cloudy FEW095 SCT120 59 31.1 35% 29.24 0.0
04 01:15 W 10 9.00 Partly Cloudy SCT110 59.4 30.6 34% 29.27 0.0
04 00:55 W 9 9.00 Overcast OVC100 58.3 30.4 62.1 57.7 35% 29.3 0.0
04 00:35 SW 7 G 18 9.00 Overcast FEW080 OVC095 59 29.5 33% 29.29 0.0
04 00:15 SW 10 9.00 Overcast OVC100 58.6 28.8 32% 29.29 0.0
03 23:55 SW 13 G 21 9.00 Overcast OVC100 58.1 28.4 32% 29.3 0.0
03 23:35 S 12 9.00 Overcast OVC100 57.7 28.6 33% 29.31 0.0
03 23:15 S 10 9.00 Overcast OVC095 58.1 28.2 32% 29.33 0.0
03 22:55 SW 12 10.00 Mostly Cloudy BKN095 58.8 27.9 31% 29.35 0.0
03 22:35 SW 12 9.00 Mostly Cloudy BKN095 58.5 27.9 31% 29.37 0.0
03 22:15 S 9 9.00 Mostly Cloudy BKN095 58.1 27.7 31% 29.39 0.0
03 21:55 S 9 10.00 Overcast OVC095 58.3 27.7 31% 29.41 0.0
03 21:35 S 10 10.00 Overcast OVC095 58.1 27.9 32% 29.41 0.0
03 21:15 S 9 9.00 Overcast OVC090 58.6 27.7 31% 29.42 0.0
03 20:55 S 7 10.00 Overcast BKN095 OVC110 59.4 27.3 29% 29.44 0.0
03 20:35 S 7 9.00 Mostly Cloudy FEW090 BKN110 60.1 26.8 28% 29.45 0.0
03 20:15 SW 8 8.00 Fair CLR 60.8 26.6 27% 29.47 0.0
03 19:55 SW 8 8.00 Fair CLR 61.2 27 27% 29.48 0.0
03 19:35 SW 8 8.00 A Few Clouds FEW110 61.9 26.6 26% 29.49 0.0
03 19:15 S 8 8.00 Partly Cloudy SCT120 61.9 26.6 26% 29.51 0.0
03 18:55 SW 6 8.00 A Few Clouds FEW150 61.9 26.6 64.2 57.7 26% 29.52 0.0
03 18:35 W 8 8.00 Fair CLR 62.1 26.2 26% 29.53 0.0
03 18:15 W 8 8.00 Fair CLR 62.4 27.1 26% 29.54 0.0
03 17:55 W 14 G 21 8.00 Fair CLR 63.7 26.8 25% 29.56 0.0
03 17:35 W 13 7.00 Fair CLR 63.5 27 25% 29.57 0.0
03 17:15 W 10 8.00 Fair CLR 63 27.5 26% 29.57 0.0
03 16:55 W 14 G 23 7.00 A Few Clouds FEW080 63.7 27.1 25% 29.58 0.0
03 16:35 W 16 7.00 Fair CLR 63.7 28.2 26% 29.59 0.0
03 16:15 W 16 G 22 8.00 A Few Clouds FEW080 63 28 27% 29.6 0.0
03 15:55 W 12 7.00 Fair CLR 63.1 28.4 27% 29.6 0.0
03 15:35 W 12 7.00 Fair CLR 61.7 27.3 27% 29.61 0.0
03 15:15 NW 10 G 20 7.00 Fair CLR 61.7 27.3 27% 29.61 0.0
03 14:55 NW 15 G 22 7.00 A Few Clouds FEW250 60.3 25.3 26% 29.63 0.0
03 14:35 NW 15 G 21 7.00 A Few Clouds FEW310 60.3 26.4 27% 29.64 0.0
03 14:15 W 15 G 22 7.00 A Few Clouds FEW350 60.3 25.9 27% 29.65 0.0
03 13:55 NW 14 G 20 9.00 Fair CLR 59.5 25.2 27% 29.66 0.0
03 13:35 NW 13 G 20 8.00 A Few Clouds FEW350 58.5 25 28% 29.66 0.0
03 13:15 NW 18 G 25 8.00 A Few Clouds FEW350 58.1 24.1 27% 29.67 0.0
03 12:55 NW 12 G 20 9.00 A Few Clouds FEW370 57.9 24.8 58.1 40.8 28% 29.68 0.0
03 12:35 NW 17 G 22 8.00 A Few Clouds FEW370 57.7 24.1 27% 29.68 0.0
03 12:15 NW 13 G 18 9.00 Fair CLR 56.7 24.4 29% 29.69 0.0
03 11:55 NW 15 G 21 8.00 Fair CLR 55.6 23.5 29% 29.7 0.0
03 11:35 NW 15 G 20 9.00 Fair CLR 54.9 23 29% 29.71 0.0
03 11:15 NW 10 G 17 7.00 Fair CLR 54.3 24.8 32% 29.71 0.0
03 10:55 NW 12 7.00 Fair CLR 52.5 25.5 35% 29.71 0.0
03 10:35 NW 13 8.00 Fair CLR 52.2 25.5 36% 29.71 0.0
03 10:15 NW 14 7.00 Fair CLR 51.6 26.8 38% 29.71 0.0
03 09:55 NW 10 8.00 Fair CLR 50.4 29.5 45% 29.71 0.0
03 09:35 NW 12 8.00 Fair CLR 49.6 30.4 48% 46 29.71 0.0
03 09:15 NW 13 G 18 8.00 Fair CLR 48.7 32 53% 44 29.71 0.0
03 08:55 NW 12 G 17 8.00 Fair CLR 46.6 33.4 60% 42 29.71 0.0
03 08:35 NW 10 8.00 Fair CLR 45.1 34.9 67% 40 29.71 0.0
03 08:15 NW 9 8.00 Fair CLR 43.9 35.2 72% 39 29.7 0.0
03 07:55 NW 8 8.00 Fair CLR 42.4 36.1 78% 38 29.7 0.0
03 07:35 NW 10 7.00 Fair CLR 41.9 37 83% 36 29.7 0.0
03 07:15 NW 10 9.00 Fair CLR 41.2 38.1 89% 36 29.69 0.0
03 06:55 NW 9 G 17 8.00 Fair CLR 40.8 39 44.4 31.8 93% 36 29.68 0.0
03 06:35 NW 9 G 16 9.00 Fair CLR 40.1 39 96% 35 29.68 0.0
03 06:15 NW 7 8.00 Fair CLR 39.2 38.8 99% 35 29.67 0.0
03 05:55 W 3 8.00 Fair CLR 40.1 39.9 99% 29.67 0.0
03 05:35 Calm 9.00 Fair CLR 39.4 39.4 100% 29.67 0.0
03 05:15 Calm 10.00 Fair CLR 32.7 32.5 99% 29.67 0.0
03 04:55 Calm 9.00 Fair CLR 32.4 31.6 97% 29.68 0.0
03 04:35 Calm 10.00 Fair CLR 33.6 33.4 99% 29.68 0.0
03 04:15 Calm 10.00 Fair CLR 34.5 34.2 99% 29.68 0.0
03 03:55 Calm 9.00 Fair CLR 35.6 35.4 99% 29.69 0.0
03 03:35 Calm 9.00 Fair CLR 34.5 34.5 100% 29.69 0.0
03 03:15 Calm 9.00 Fair CLR 37.4 37.4 100% 29.69 0.0
03 02:55 Calm 9.00 Fair CLR 37.6 36.9 97% 29.69 0.0
03 02:35 Calm 9.00 Fair CLR 38.1 37.8 99% 29.7 0.0
03 02:15 Calm 10.00 Fair CLR 38.1 37.9 99% 29.7 0.0
03 01:55 Calm 9.00 Fair CLR 39.6 39.4 99% 29.7 0.0
03 01:35 Calm 9.00 Fair CLR 41.9 40.6 95% 29.71 0.0
03 01:15 Calm 10.00 Fair CLR 44.2 41.5 90% 29.71 0.0
03 00:55 Calm 9.00 A Few Clouds FEW065 43.3 42.1 59.4 43 95% 29.71 0.0
03 00:35 Calm 9.00 Partly Cloudy SCT060 45.7 42.3 88% 29.72 0.0
03 00:15 Calm 9.00 Overcast OVC060 47.5 43.5 86% 29.72 0.0
02 23:55 Calm 10.00 Overcast OVC060 46.8 44.8 93% 29.72 0.0
02 23:35 Calm 9.00 Overcast OVC065 47.3 44.2 89% 29.72 0.0
02 23:15 Calm 9.00 Overcast OVC070 48 43.9 86% 29.73 0.0
02 22:55 Calm 9.00 Overcast BKN060 OVC080 48.7 43.7 83% 29.73 0.0
02 22:35 Calm 9.00 Overcast OVC065 49.1 43.7 82% 29.74 0.0
02 22:15 Calm 10.00 Overcast OVC065 49.5 43.9 81% 29.74 0.0
02 21:55 S 3 9.00 Overcast OVC065 49.1 44.6 85% 29.74 0.0
02 21:35 Calm 10.00 Overcast OVC060 49.1 45.1 86% 29.75 0.0
02 21:15 S 6 9.00 Overcast OVC060 49.3 45 85% 47 29.75 0.0
02 20:55 W 6 7.00 Light Rain SCT045 OVC060 51.3 43.7 75% 29.76 0.0
Date Time (cdt) Wind (mph) Vis. (mi.) Weather Sky Cond. Air Dwpt Max. Min. Relative Humidity Wind Chill (°F) Heat Index (°F) altimeter (in) sea level (mb) 1 hr 3 hr 6 hr
6 hour
Temperature (ºF) Pressure Precipitation (in)